sensor_id;sensor_type;location;lat;lon;timestamp;temperature;humidity
11140;DHT22;5624;49.388;11.350;2023-02-01T00:00:00;2.20;99.90
11140;DHT22;5624;49.388;11.350;2023-02-01T00:02:25;2.10;99.90
11140;DHT22;5624;49.388;11.350;2023-02-01T00:04:51;2.20;99.80
11140;DHT22;5624;49.388;11.350;2023-02-01T00:07:17;2.00;99.90
11140;DHT22;5624;49.388;11.350;2023-02-01T00:09:42;2.00;99.90
11140;DHT22;5624;49.388;11.350;2023-02-01T00:12:08;2.00;99.90
11140;DHT22;5624;49.388;11.350;2023-02-01T00:14:33;2.00;99.90
11140;DHT22;5624;49.388;11.350;2023-02-01T00:17:04;2.00;99.90
11140;DHT22;5624;49.388;11.350;2023-02-01T00:19:31;2.00;99.90
11140;DHT22;5624;49.388;11.350;2023-02-01T00:21:57;1.90;99.90
11140;DHT22;5624;49.388;11.350;2023-02-01T00:24:23;2.00;99.90
11140;DHT22;5624;49.388;11.350;2023-02-01T00:26:48;1.90;99.90
11140;DHT22;5624;49.388;11.350;2023-02-01T00:29:19;1.90;99.90
11140;DHT22;5624;49.388;11.350;2023-02-01T00:31:45;1.90;99.90
11140;DHT22;5624;49.388;11.350;2023-02-01T00:34:13;1.90;99.90
11140;DHT22;5624;49.388;11.350;2023-02-01T00:36:40;1.90;99.90
11140;DHT22;5624;49.388;11.350;2023-02-01T00:39:05;1.80;99.90
11140;DHT22;5624;49.388;11.350;2023-02-01T00:41:31;1.90;99.90
11140;DHT22;5624;49.388;11.350;2023-02-01T00:43:56;1.90;99.90
11140;DHT22;5624;49.388;11.350;2023-02-01T00:46:22;1.90;99.90
11140;DHT22;5624;49.388;11.350;2023-02-01T00:48:48;1.80;99.90
11140;DHT22;5624;49.388;11.350;2023-02-01T00:51:20;1.90;99.90
11140;DHT22;5624;49.388;11.350;2023-02-01T00:53:46;2.00;99.90
11140;DHT22;5624;49.388;11.350;2023-02-01T00:56:11;1.90;99.90
11140;DHT22;5624;49.388;11.350;2023-02-01T00:58:37;2.00;99.90
11140;DHT22;5624;49.388;11.350;2023-02-01T01:03:41;2.00;99.90
11140;DHT22;5624;49.388;11.350;2023-02-01T01:06:09;2.00;99.90
11140;DHT22;5624;49.388;11.350;2023-02-01T01:08:36;2.10;99.90
11140;DHT22;5624;49.388;11.350;2023-02-01T01:11:10;2.10;99.90
11140;DHT22;5624;49.388;11.350;2023-02-01T01:13:36;2.10;99.90
11140;DHT22;5624;49.388;11.350;2023-02-01T01:16:03;2.10;99.90
11140;DHT22;5624;49.388;11.350;2023-02-01T01:18:30;2.10;99.90
11140;DHT22;5624;49.388;11.350;2023-02-01T01:20:55;2.20;99.90
11140;DHT22;5624;49.388;11.350;2023-02-01T01:23:21;2.20;99.90
11140;DHT22;5624;49.388;11.350;2023-02-01T01:25:47;2.20;99.90
11140;DHT22;5624;49.388;11.350;2023-02-01T01:28:13;2.20;99.90
11140;DHT22;5624;49.388;11.350;2023-02-01T01:30:39;2.20;99.90
11140;DHT22;5624;49.388;11.350;2023-02-01T01:33:05;2.30;99.90
11140;DHT22;5624;49.388;11.350;2023-02-01T01:35:32;2.30;99.90
11140;DHT22;5624;49.388;11.350;2023-02-01T01:37:59;2.40;99.90
11140;DHT22;5624;49.388;11.350;2023-02-01T01:40:26;2.40;99.90
11140;DHT22;5624;49.388;11.350;2023-02-01T01:42:52;2.40;99.90
11140;DHT22;5624;49.388;11.350;2023-02-01T01:45:39;2.40;99.90
11140;DHT22;5624;49.388;11.350;2023-02-01T01:48:21;2.40;99.90
11140;DHT22;5624;49.388;11.350;2023-02-01T01:51:02;2.50;99.90
11140;DHT22;5624;49.388;11.350;2023-02-01T01:53:34;2.50;99.90
11140;DHT22;5624;49.388;11.350;2023-02-01T01:56:03;2.40;99.90
11140;DHT22;5624;49.388;11.350;2023-02-01T01:58:30;2.40;99.90
11140;DHT22;5624;49.388;11.350;2023-02-01T02:00:58;2.50;99.90
11140;DHT22;5624;49.388;11.350;2023-02-01T02:03:39;2.40;99.90
11140;DHT22;5624;49.388;11.350;2023-02-01T02:06:15;2.40;99.90
11140;DHT22;5624;49.388;11.350;2023-02-01T02:08:42;2.40;99.90
11140;DHT22;5624;49.388;11.350;2023-02-01T02:11:07;2.40;99.90
11140;DHT22;5624;49.388;11.350;2023-02-01T02:13:38;2.40;99.90
11140;DHT22;5624;49.388;11.350;2023-02-01T02:18:49;2.40;99.90
11140;DHT22;5624;49.388;11.350;2023-02-01T02:24:35;2.40;99.90
11140;DHT22;5624;49.388;11.350;2023-02-01T02:30:27;2.40;99.90
11140;DHT22;5624;49.388;11.350;2023-02-01T02:44:49;2.50;99.90
11140;DHT22;5624;49.388;11.350;2023-02-01T02:50:25;2.50;99.90
11140;DHT22;5624;49.388;11.350;2023-02-01T02:53:16;2.50;99.90
11140;DHT22;5624;49.388;11.350;2023-02-01T02:56:03;2.50;99.90
11140;DHT22;5624;49.388;11.350;2023-02-01T02:58:49;2.50;99.90
11140;DHT22;5624;49.388;11.350;2023-02-01T03:01:34;2.50;99.90
11140;DHT22;5624;49.388;11.350;2023-02-01T03:04:18;2.40;99.90
11140;DHT22;5624;49.388;11.350;2023-02-01T03:06:45;2.50;99.90
11140;DHT22;5624;49.388;11.350;2023-02-01T03:09:37;2.50;99.90
11140;DHT22;5624;49.388;11.350;2023-02-01T03:12:10;2.40;99.90
11140;DHT22;5624;49.388;11.350;2023-02-01T03:15:00;2.40;99.90
11140;DHT22;5624;49.388;11.350;2023-02-01T03:17:32;2.40;99.90
11140;DHT22;5624;49.388;11.350;2023-02-01T03:20:01;2.40;99.90
11140;DHT22;5624;49.388;11.350;2023-02-01T03:22:29;2.30;99.90
11140;DHT22;5624;49.388;11.350;2023-02-01T03:25:10;2.40;99.90
11140;DHT22;5624;49.388;11.350;2023-02-01T03:27:46;2.40;99.90
11140;DHT22;5624;49.388;11.350;2023-02-01T03:30:21;2.40;99.90
11140;DHT22;5624;49.388;11.350;2023-02-01T03:32:50;2.40;99.90
11140;DHT22;5624;49.388;11.350;2023-02-01T03:38:04;2.40;99.90
11140;DHT22;5624;49.388;11.350;2023-02-01T03:40:35;2.30;99.90
11140;DHT22;5624;49.388;11.350;2023-02-01T03:43:04;2.40;99.90
11140;DHT22;5624;49.388;11.350;2023-02-01T03:45:37;2.30;99.90
11140;DHT22;5624;49.388;11.350;2023-02-01T03:48:07;2.30;99.90
11140;DHT22;5624;49.388;11.350;2023-02-01T03:50:35;2.30;99.90
11140;DHT22;5624;49.388;11.350;2023-02-01T03:53:08;2.20;99.90
11140;DHT22;5624;49.388;11.350;2023-02-01T03:55:36;2.30;99.90
11140;DHT22;5624;49.388;11.350;2023-02-01T04:00:30;2.30;99.90
11140;DHT22;5624;49.388;11.350;2023-02-01T04:02:55;2.40;99.90
11140;DHT22;5624;49.388;11.350;2023-02-01T04:05:22;2.40;99.90
11140;DHT22;5624;49.388;11.350;2023-02-01T04:07:48;2.40;99.90
11140;DHT22;5624;49.388;11.350;2023-02-01T04:10:13;2.40;99.90
11140;DHT22;5624;49.388;11.350;2023-02-01T04:12:39;2.40;99.90
11140;DHT22;5624;49.388;11.350;2023-02-01T04:15:05;2.40;99.90
11140;DHT22;5624;49.388;11.350;2023-02-01T04:17:31;2.40;99.90
11140;DHT22;5624;49.388;11.350;2023-02-01T04:19:57;2.40;99.90
11140;DHT22;5624;49.388;11.350;2023-02-01T04:22:22;2.40;99.90
11140;DHT22;5624;49.388;11.350;2023-02-01T04:24:48;2.40;99.90
11140;DHT22;5624;49.388;11.350;2023-02-01T04:27:14;2.40;99.90
11140;DHT22;5624;49.388;11.350;2023-02-01T04:29:39;2.40;99.90
11140;DHT22;5624;49.388;11.350;2023-02-01T04:32:06;2.40;99.90
11140;DHT22;5624;49.388;11.350;2023-02-01T04:34:32;2.50;99.90
11140;DHT22;5624;49.388;11.350;2023-02-01T04:36:57;2.50;99.90
11140;DHT22;5624;49.388;11.350;2023-02-01T04:39:23;2.50;99.90
11140;DHT22;5624;49.388;11.350;2023-02-01T04:41:48;2.50;99.90
11140;DHT22;5624;49.388;11.350;2023-02-01T04:44:16;2.40;99.90
11140;DHT22;5624;49.388;11.350;2023-02-01T04:46:43;2.50;99.90
11140;DHT22;5624;49.388;11.350;2023-02-01T04:49:10;2.50;99.90
11140;DHT22;5624;49.388;11.350;2023-02-01T04:51:36;2.50;99.90
11140;DHT22;5624;49.388;11.350;2023-02-01T04:54:01;2.50;99.90
11140;DHT22;5624;49.388;11.350;2023-02-01T04:56:27;2.40;99.90
11140;DHT22;5624;49.388;11.350;2023-02-01T04:58:53;2.40;99.90
11140;DHT22;5624;49.388;11.350;2023-02-01T05:01:18;2.40;99.90
11140;DHT22;5624;49.388;11.350;2023-02-01T05:03:44;2.40;99.90
11140;DHT22;5624;49.388;11.350;2023-02-01T05:06:10;2.30;99.90
11140;DHT22;5624;49.388;11.350;2023-02-01T05:08:35;2.20;99.90
11140;DHT22;5624;49.388;11.350;2023-02-01T05:11:01;2.20;99.90
11140;DHT22;5624;49.388;11.350;2023-02-01T05:13:30;2.30;99.90
11140;DHT22;5624;49.388;11.350;2023-02-01T05:16:14;2.30;99.90
11140;DHT22;5624;49.388;11.350;2023-02-01T05:18:39;2.20;99.90
11140;DHT22;5624;49.388;11.350;2023-02-01T05:21:05;2.20;99.90
11140;DHT22;5624;49.388;11.350;2023-02-01T05:23:31;2.20;99.90
11140;DHT22;5624;49.388;11.350;2023-02-01T05:26:00;2.20;99.90
11140;DHT22;5624;49.388;11.350;2023-02-01T05:28:26;2.20;99.90
11140;DHT22;5624;49.388;11.350;2023-02-01T05:30:52;2.20;99.90
11140;DHT22;5624;49.388;11.350;2023-02-01T05:33:18;2.10;99.90
11140;DHT22;5624;49.388;11.350;2023-02-01T05:35:43;2.10;99.90
11140;DHT22;5624;49.388;11.350;2023-02-01T05:38:09;2.20;99.90
11140;DHT22;5624;49.388;11.350;2023-02-01T05:40:34;2.10;99.90
11140;DHT22;5624;49.388;11.350;2023-02-01T05:43:00;2.10;99.90
11140;DHT22;5624;49.388;11.350;2023-02-01T05:45:25;2.00;99.90
11140;DHT22;5624;49.388;11.350;2023-02-01T05:47:51;2.00;99.90
11140;DHT22;5624;49.388;11.350;2023-02-01T05:50:17;1.90;99.90
11140;DHT22;5624;49.388;11.350;2023-02-01T05:52:42;1.90;99.90
11140;DHT22;5624;49.388;11.350;2023-02-01T05:55:08;1.90;99.90
11140;DHT22;5624;49.388;11.350;2023-02-01T05:57:34;1.90;99.90
11140;DHT22;5624;49.388;11.350;2023-02-01T05:59:59;1.80;99.90
11140;DHT22;5624;49.388;11.350;2023-02-01T06:02:26;1.80;99.90
11140;DHT22;5624;49.388;11.350;2023-02-01T06:04:51;1.80;99.90
11140;DHT22;5624;49.388;11.350;2023-02-01T06:07:17;1.80;99.90
11140;DHT22;5624;49.388;11.350;2023-02-01T06:09:43;1.80;99.90
11140;DHT22;5624;49.388;11.350;2023-02-01T06:12:08;1.70;99.90
11140;DHT22;5624;49.388;11.350;2023-02-01T06:14:34;1.70;99.90
11140;DHT22;5624;49.388;11.350;2023-02-01T06:16:59;1.60;99.90
11140;DHT22;5624;49.388;11.350;2023-02-01T06:19:25;1.60;99.90
11140;DHT22;5624;49.388;11.350;2023-02-01T06:21:51;1.50;99.90
11140;DHT22;5624;49.388;11.350;2023-02-01T06:24:17;1.50;99.90
11140;DHT22;5624;49.388;11.350;2023-02-01T06:26:42;1.40;99.90
11140;DHT22;5624;49.388;11.350;2023-02-01T06:29:11;1.40;99.90
11140;DHT22;5624;49.388;11.350;2023-02-01T06:31:37;1.40;99.90
11140;DHT22;5624;49.388;11.350;2023-02-01T06:34:03;1.40;99.90
11140;DHT22;5624;49.388;11.350;2023-02-01T06:36:29;1.30;99.90
11140;DHT22;5624;49.388;11.350;2023-02-01T06:38:58;1.30;99.90
11140;DHT22;5624;49.388;11.350;2023-02-01T06:41:25;1.30;99.90
11140;DHT22;5624;49.388;11.350;2023-02-01T06:43:51;1.40;99.90
11140;DHT22;5624;49.388;11.350;2023-02-01T06:46:17;1.40;99.90
11140;DHT22;5624;49.388;11.350;2023-02-01T06:48:43;1.40;99.90
11140;DHT22;5624;49.388;11.350;2023-02-01T06:51:24;1.40;99.90
11140;DHT22;5624;49.388;11.350;2023-02-01T06:53:50;1.50;99.90
11140;DHT22;5624;49.388;11.350;2023-02-01T06:56:16;1.50;99.90
11140;DHT22;5624;49.388;11.350;2023-02-01T06:58:42;1.50;99.90
11140;DHT22;5624;49.388;11.350;2023-02-01T07:01:09;1.50;99.90
11140;DHT22;5624;49.388;11.350;2023-02-01T07:03:35;1.60;99.90
11140;DHT22;5624;49.388;11.350;2023-02-01T07:06:01;1.60;99.90
11140;DHT22;5624;49.388;11.350;2023-02-01T07:08:27;1.70;99.90
11140;DHT22;5624;49.388;11.350;2023-02-01T07:10:53;1.80;99.90
11140;DHT22;5624;49.388;11.350;2023-02-01T07:13:19;1.80;99.90
11140;DHT22;5624;49.388;11.350;2023-02-01T07:15:45;1.80;99.90
11140;DHT22;5624;49.388;11.350;2023-02-01T07:18:15;1.80;99.90
11140;DHT22;5624;49.388;11.350;2023-02-01T07:20:41;1.80;99.90
11140;DHT22;5624;49.388;11.350;2023-02-01T07:23:10;1.90;99.90
11140;DHT22;5624;49.388;11.350;2023-02-01T07:25:35;1.90;99.90
11140;DHT22;5624;49.388;11.350;2023-02-01T07:28:01;1.90;99.90
11140;DHT22;5624;49.388;11.350;2023-02-01T07:30:27;1.90;99.90
11140;DHT22;5624;49.388;11.350;2023-02-01T07:32:53;2.00;99.90
11140;DHT22;5624;49.388;11.350;2023-02-01T07:35:18;2.00;99.90
11140;DHT22;5624;49.388;11.350;2023-02-01T07:37:44;2.10;99.90
11140;DHT22;5624;49.388;11.350;2023-02-01T07:40:10;2.10;99.90
11140;DHT22;5624;49.388;11.350;2023-02-01T07:42:36;2.10;99.90
11140;DHT22;5624;49.388;11.350;2023-02-01T07:45:02;2.10;99.90
11140;DHT22;5624;49.388;11.350;2023-02-01T07:47:28;2.10;99.90
11140;DHT22;5624;49.388;11.350;2023-02-01T07:49:54;2.20;99.90
11140;DHT22;5624;49.388;11.350;2023-02-01T07:52:20;2.20;99.90
11140;DHT22;5624;49.388;11.350;2023-02-01T07:54:45;2.20;99.90
11140;DHT22;5624;49.388;11.350;2023-02-01T07:57:11;2.20;99.90
11140;DHT22;5624;49.388;11.350;2023-02-01T07:59:37;2.30;99.90
11140;DHT22;5624;49.388;11.350;2023-02-01T08:02:22;2.30;99.90
11140;DHT22;5624;49.388;11.350;2023-02-01T08:04:48;2.40;99.90
11140;DHT22;5624;49.388;11.350;2023-02-01T08:07:14;2.50;99.90
11140;DHT22;5624;49.388;11.350;2023-02-01T08:09:40;2.50;99.90
11140;DHT22;5624;49.388;11.350;2023-02-01T08:12:06;2.50;99.90
11140;DHT22;5624;49.388;11.350;2023-02-01T08:14:31;2.50;99.90
11140;DHT22;5624;49.388;11.350;2023-02-01T08:16:57;2.50;99.90
11140;DHT22;5624;49.388;11.350;2023-02-01T08:19:23;2.70;99.90
11140;DHT22;5624;49.388;11.350;2023-02-01T08:21:48;2.80;99.90
11140;DHT22;5624;49.388;11.350;2023-02-01T08:24:14;2.80;99.90
11140;DHT22;5624;49.388;11.350;2023-02-01T08:26:40;2.90;99.90
11140;DHT22;5624;49.388;11.350;2023-02-01T08:29:07;3.00;99.90
11140;DHT22;5624;49.388;11.350;2023-02-01T08:31:34;3.10;99.90
11140;DHT22;5624;49.388;11.350;2023-02-01T08:34:02;3.20;99.90
11140;DHT22;5624;49.388;11.350;2023-02-01T08:36:30;3.30;99.80
11140;DHT22;5624;49.388;11.350;2023-02-01T08:38:56;3.40;98.50
11140;DHT22;5624;49.388;11.350;2023-02-01T08:41:25;3.50;97.70
11140;DHT22;5624;49.388;11.350;2023-02-01T08:43:51;3.50;98.00
11140;DHT22;5624;49.388;11.350;2023-02-01T08:46:17;3.50;97.00
11140;DHT22;5624;49.388;11.350;2023-02-01T08:48:43;3.30;97.20
11140;DHT22;5624;49.388;11.350;2023-02-01T08:51:11;3.20;97.60
11140;DHT22;5624;49.388;11.350;2023-02-01T08:53:38;3.00;98.00
11140;DHT22;5624;49.388;11.350;2023-02-01T08:56:06;3.00;98.60
11140;DHT22;5624;49.388;11.350;2023-02-01T08:58:33;2.90;99.10
11140;DHT22;5624;49.388;11.350;2023-02-01T09:01:13;3.00;99.40
11140;DHT22;5624;49.388;11.350;2023-02-01T09:03:39;3.00;99.30
11140;DHT22;5624;49.388;11.350;2023-02-01T09:06:07;3.10;98.60
11140;DHT22;5624;49.388;11.350;2023-02-01T09:08:34;3.10;98.50
11140;DHT22;5624;49.388;11.350;2023-02-01T09:11:02;3.10;98.30
11140;DHT22;5624;49.388;11.350;2023-02-01T09:13:28;3.20;97.90
11140;DHT22;5624;49.388;11.350;2023-02-01T09:15:54;3.20;97.70
11140;DHT22;5624;49.388;11.350;2023-02-01T09:18:19;3.10;97.30
11140;DHT22;5624;49.388;11.350;2023-02-01T09:20:45;3.10;97.90
11140;DHT22;5624;49.388;11.350;2023-02-01T09:23:11;3.00;97.50
11140;DHT22;5624;49.388;11.350;2023-02-01T09:25:38;2.90;98.40
11140;DHT22;5624;49.388;11.350;2023-02-01T09:28:04;2.90;98.60
11140;DHT22;5624;49.388;11.350;2023-02-01T09:30:32;2.90;99.10
11140;DHT22;5624;49.388;11.350;2023-02-01T09:32:58;2.90;99.30
11140;DHT22;5624;49.388;11.350;2023-02-01T09:35:24;2.90;99.60
11140;DHT22;5624;49.388;11.350;2023-02-01T09:37:49;3.00;99.60
11140;DHT22;5624;49.388;11.350;2023-02-01T09:40:16;2.90;99.10
11140;DHT22;5624;49.388;11.350;2023-02-01T09:45:24;2.60;99.90
11140;DHT22;5624;49.388;11.350;2023-02-01T09:47:57;2.60;99.90
11140;DHT22;5624;49.388;11.350;2023-02-01T09:50:53;2.60;99.80
11140;DHT22;5624;49.388;11.350;2023-02-01T09:55:47;2.30;99.90
11140;DHT22;5624;49.388;11.350;2023-02-01T09:58:21;2.20;99.90
11140;DHT22;5624;49.388;11.350;2023-02-01T10:00:58;1.90;99.90
11140;DHT22;5624;49.388;11.350;2023-02-01T10:03:27;1.80;99.90
11140;DHT22;5624;49.388;11.350;2023-02-01T10:11:03;2.20;99.90
11140;DHT22;5624;49.388;11.350;2023-02-01T10:16:50;2.70;99.00
11140;DHT22;5624;49.388;11.350;2023-02-01T10:22:05;2.60;98.20
11140;DHT22;5624;49.388;11.350;2023-02-01T10:24:42;2.70;98.20
11140;DHT22;5624;49.388;11.350;2023-02-01T10:27:14;2.60;97.90
11140;DHT22;5624;49.388;11.350;2023-02-01T10:29:48;2.60;98.30
11140;DHT22;5624;49.388;11.350;2023-02-01T10:32:16;2.70;98.10
11140;DHT22;5624;49.388;11.350;2023-02-01T10:34:46;2.60;98.30
11140;DHT22;5624;49.388;11.350;2023-02-01T10:37:33;2.70;98.60
11140;DHT22;5624;49.388;11.350;2023-02-01T10:40:15;2.60;99.00
11140;DHT22;5624;49.388;11.350;2023-02-01T10:42:41;2.70;99.40
11140;DHT22;5624;49.388;11.350;2023-02-01T10:45:11;2.80;99.90
11140;DHT22;5624;49.388;11.350;2023-02-01T10:47:38;2.80;99.90
11140;DHT22;5624;49.388;11.350;2023-02-01T10:52:45;2.90;99.60
11140;DHT22;5624;49.388;11.350;2023-02-01T10:55:39;3.00;99.60
11140;DHT22;5624;49.388;11.350;2023-02-01T10:58:10;3.10;98.90
11140;DHT22;5624;49.388;11.350;2023-02-01T11:00:48;3.00;98.90
11140;DHT22;5624;49.388;11.350;2023-02-01T11:05:48;3.10;98.30
11140;DHT22;5624;49.388;11.350;2023-02-01T11:08:17;3.10;98.30
11140;DHT22;5624;49.388;11.350;2023-02-01T11:10:44;3.10;97.10
11140;DHT22;5624;49.388;11.350;2023-02-01T11:13:17;3.10;97.40
11140;DHT22;5624;49.388;11.350;2023-02-01T11:15:54;3.10;97.20
11140;DHT22;5624;49.388;11.350;2023-02-01T11:18:27;3.00;97.30
11140;DHT22;5624;49.388;11.350;2023-02-01T11:20:53;2.80;98.50
11140;DHT22;5624;49.388;11.350;2023-02-01T11:23:25;2.90;99.00
11140;DHT22;5624;49.388;11.350;2023-02-01T11:26:00;2.80;99.30
11140;DHT22;5624;49.388;11.350;2023-02-01T11:28:30;2.70;99.80
11140;DHT22;5624;49.388;11.350;2023-02-01T11:30:58;2.70;99.90
11140;DHT22;5624;49.388;11.350;2023-02-01T11:33:30;2.60;99.90
11140;DHT22;5624;49.388;11.350;2023-02-01T11:35:59;2.60;99.90
11140;DHT22;5624;49.388;11.350;2023-02-01T11:38:31;2.70;99.90
11140;DHT22;5624;49.388;11.350;2023-02-01T11:41:21;2.60;99.90
11140;DHT22;5624;49.388;11.350;2023-02-01T11:44:20;2.80;99.90
11140;DHT22;5624;49.388;11.350;2023-02-01T11:46:46;2.80;99.70
11140;DHT22;5624;49.388;11.350;2023-02-01T11:49:23;2.90;99.00
11140;DHT22;5624;49.388;11.350;2023-02-01T12:05:34;3.00;95.90
11140;DHT22;5624;49.388;11.350;2023-02-01T12:14:28;3.30;95.20
11140;DHT22;5624;49.388;11.350;2023-02-01T12:16:53;3.40;94.60
11140;DHT22;5624;49.388;11.350;2023-02-01T12:19:36;3.20;94.30
11140;DHT22;5624;49.388;11.350;2023-02-01T12:27:42;3.20;94.60
11140;DHT22;5624;49.388;11.350;2023-02-01T12:30:18;3.20;94.60
11140;DHT22;5624;49.388;11.350;2023-02-01T12:43:54;3.30;92.30
11140;DHT22;5624;49.388;11.350;2023-02-01T12:51:44;3.30;92.30
11140;DHT22;5624;49.388;11.350;2023-02-01T12:54:35;3.40;92.10
11140;DHT22;5624;49.388;11.350;2023-02-01T12:57:40;3.40;91.90
11140;DHT22;5624;49.388;11.350;2023-02-01T13:00:06;3.40;91.10
11140;DHT22;5624;49.388;11.350;2023-02-01T13:02:44;3.40;91.50
11140;DHT22;5624;49.388;11.350;2023-02-01T13:05:20;3.40;91.70
11140;DHT22;5624;49.388;11.350;2023-02-01T13:07:50;3.40;92.50
11140;DHT22;5624;49.388;11.350;2023-02-01T13:10:28;3.40;92.30
11140;DHT22;5624;49.388;11.350;2023-02-01T13:15:56;3.50;91.70
11140;DHT22;5624;49.388;11.350;2023-02-01T13:18:25;3.50;91.00
11140;DHT22;5624;49.388;11.350;2023-02-01T13:20:54;3.40;91.00
11140;DHT22;5624;49.388;11.350;2023-02-01T13:23:30;3.40;92.00
11140;DHT22;5624;49.388;11.350;2023-02-01T13:25:56;3.30;91.60
11140;DHT22;5624;49.388;11.350;2023-02-01T13:33:51;3.00;94.50
11140;DHT22;5624;49.388;11.350;2023-02-01T13:42:23;3.00;94.60
11140;DHT22;5624;49.388;11.350;2023-02-01T13:49:55;3.00;94.20
11140;DHT22;5624;49.388;11.350;2023-02-01T13:52:40;3.10;93.90
11140;DHT22;5624;49.388;11.350;2023-02-01T13:57:40;3.10;93.60
11140;DHT22;5624;49.388;11.350;2023-02-01T14:00:28;3.10;93.10
11140;DHT22;5624;49.388;11.350;2023-02-01T14:08:11;3.20;92.20
11140;DHT22;5624;49.388;11.350;2023-02-01T14:13:35;3.30;92.10
11140;DHT22;5624;49.388;11.350;2023-02-01T14:21:19;3.20;91.50
11140;DHT22;5624;49.388;11.350;2023-02-01T14:23:55;3.20;91.90
11140;DHT22;5624;49.388;11.350;2023-02-01T14:26:43;3.20;91.60
11140;DHT22;5624;49.388;11.350;2023-02-01T14:34:34;3.20;91.60
11140;DHT22;5624;49.388;11.350;2023-02-01T14:37:02;3.30;91.30
11140;DHT22;5624;49.388;11.350;2023-02-01T14:39:37;3.30;91.00
11140;DHT22;5624;49.388;11.350;2023-02-01T14:44:40;3.20;91.20
11140;DHT22;5624;49.388;11.350;2023-02-01T14:47:07;3.30;91.50
11140;DHT22;5624;49.388;11.350;2023-02-01T14:50:03;3.30;91.30
11140;DHT22;5624;49.388;11.350;2023-02-01T14:52:36;3.30;91.30
11140;DHT22;5624;49.388;11.350;2023-02-01T14:57:57;3.20;91.10
11140;DHT22;5624;49.388;11.350;2023-02-01T15:00:30;3.20;90.70
11140;DHT22;5624;49.388;11.350;2023-02-01T15:03:20;3.20;89.90
11140;DHT22;5624;49.388;11.350;2023-02-01T15:05:55;3.20;89.50
11140;DHT22;5624;49.388;11.350;2023-02-01T15:08:27;3.20;89.60
11140;DHT22;5624;49.388;11.350;2023-02-01T15:10:54;3.20;90.30
11140;DHT22;5624;49.388;11.350;2023-02-01T15:13:25;3.20;90.50
11140;DHT22;5624;49.388;11.350;2023-02-01T15:16:05;3.10;91.50
11140;DHT22;5624;49.388;11.350;2023-02-01T15:18:32;3.10;91.60
11140;DHT22;5624;49.388;11.350;2023-02-01T15:21:02;3.00;91.80
11140;DHT22;5624;49.388;11.350;2023-02-01T15:23:29;3.00;91.90
11140;DHT22;5624;49.388;11.350;2023-02-01T15:25:55;3.00;91.50
11140;DHT22;5624;49.388;11.350;2023-02-01T15:28:22;3.00;92.00
11140;DHT22;5624;49.388;11.350;2023-02-01T15:31:02;3.10;91.70
11140;DHT22;5624;49.388;11.350;2023-02-01T15:33:30;3.00;91.70
11140;DHT22;5624;49.388;11.350;2023-02-01T15:38:34;3.10;90.30
11140;DHT22;5624;49.388;11.350;2023-02-01T15:41:11;3.00;90.50
11140;DHT22;5624;49.388;11.350;2023-02-01T15:46:23;3.10;89.90
11140;DHT22;5624;49.388;11.350;2023-02-01T15:48:52;3.10;89.80
11140;DHT22;5624;49.388;11.350;2023-02-01T15:51:27;3.10;89.50
11140;DHT22;5624;49.388;11.350;2023-02-01T15:53:59;3.10;89.10
11140;DHT22;5624;49.388;11.350;2023-02-01T15:56:28;3.10;88.60
11140;DHT22;5624;49.388;11.350;2023-02-01T15:58:58;3.10;88.00
11140;DHT22;5624;49.388;11.350;2023-02-01T16:01:25;3.10;88.50
11140;DHT22;5624;49.388;11.350;2023-02-01T16:06:35;3.10;87.70
11140;DHT22;5624;49.388;11.350;2023-02-01T16:09:13;3.10;87.70
11140;DHT22;5624;49.388;11.350;2023-02-01T16:14:13;3.10;87.10
11140;DHT22;5624;49.388;11.350;2023-02-01T16:16:39;3.10;86.40
11140;DHT22;5624;49.388;11.350;2023-02-01T16:19:04;3.20;86.90
11140;DHT22;5624;49.388;11.350;2023-02-01T16:21:30;3.10;86.80
11140;DHT22;5624;49.388;11.350;2023-02-01T16:23:55;3.20;86.90
11140;DHT22;5624;49.388;11.350;2023-02-01T16:26:21;3.20;87.20
11140;DHT22;5624;49.388;11.350;2023-02-01T16:28:47;3.10;86.40
11140;DHT22;5624;49.388;11.350;2023-02-01T16:31:15;3.20;84.90
11140;DHT22;5624;49.388;11.350;2023-02-01T16:33:49;3.20;85.80
11140;DHT22;5624;49.388;11.350;2023-02-01T16:36:16;3.20;85.60
11140;DHT22;5624;49.388;11.350;2023-02-01T16:38:42;3.20;85.40
11140;DHT22;5624;49.388;11.350;2023-02-01T16:41:12;3.20;84.70
11140;DHT22;5624;49.388;11.350;2023-02-01T16:43:39;3.20;85.40
11140;DHT22;5624;49.388;11.350;2023-02-01T16:46:05;3.20;85.30
11140;DHT22;5624;49.388;11.350;2023-02-01T16:48:33;3.20;84.80
11140;DHT22;5624;49.388;11.350;2023-02-01T16:51:09;3.20;84.40
11140;DHT22;5624;49.388;11.350;2023-02-01T16:53:35;3.20;84.60
11140;DHT22;5624;49.388;11.350;2023-02-01T16:56:00;3.20;84.40
11140;DHT22;5624;49.388;11.350;2023-02-01T16:58:28;3.20;84.30
11140;DHT22;5624;49.388;11.350;2023-02-01T17:00:54;3.20;84.40
11140;DHT22;5624;49.388;11.350;2023-02-01T17:03:20;3.20;84.10
11140;DHT22;5624;49.388;11.350;2023-02-01T17:05:52;3.30;84.10
11140;DHT22;5624;49.388;11.350;2023-02-01T17:08:29;3.20;83.60
11140;DHT22;5624;49.388;11.350;2023-02-01T17:10:56;3.20;84.30
11140;DHT22;5624;49.388;11.350;2023-02-01T17:13:22;3.30;84.20
11140;DHT22;5624;49.388;11.350;2023-02-01T17:16:05;3.20;83.70
11140;DHT22;5624;49.388;11.350;2023-02-01T17:18:34;3.20;84.20
11140;DHT22;5624;49.388;11.350;2023-02-01T17:21:02;3.20;84.20
11140;DHT22;5624;49.388;11.350;2023-02-01T17:23:29;3.30;84.30
11140;DHT22;5624;49.388;11.350;2023-02-01T17:25:55;3.20;84.60
11140;DHT22;5624;49.388;11.350;2023-02-01T17:28:21;3.20;84.10
11140;DHT22;5624;49.388;11.350;2023-02-01T17:30:47;3.20;83.80
11140;DHT22;5624;49.388;11.350;2023-02-01T17:33:34;3.30;83.90
11140;DHT22;5624;49.388;11.350;2023-02-01T17:36:00;3.30;84.30
11140;DHT22;5624;49.388;11.350;2023-02-01T17:38:26;3.30;84.50
11140;DHT22;5624;49.388;11.350;2023-02-01T17:40:51;3.30;83.70
11140;DHT22;5624;49.388;11.350;2023-02-01T17:43:24;3.30;83.90
11140;DHT22;5624;49.388;11.350;2023-02-01T17:45:57;3.30;83.70
11140;DHT22;5624;49.388;11.350;2023-02-01T17:48:23;3.30;84.00
11140;DHT22;5624;49.388;11.350;2023-02-01T17:50:50;3.30;83.80
11140;DHT22;5624;49.388;11.350;2023-02-01T17:53:24;3.30;83.90
11140;DHT22;5624;49.388;11.350;2023-02-01T17:55:51;3.30;84.00
11140;DHT22;5624;49.388;11.350;2023-02-01T17:58:17;3.30;83.80
11140;DHT22;5624;49.388;11.350;2023-02-01T18:00:45;3.30;83.50
11140;DHT22;5624;49.388;11.350;2023-02-01T18:03:28;3.30;83.40
11140;DHT22;5624;49.388;11.350;2023-02-01T18:05:55;3.30;83.50
11140;DHT22;5624;49.388;11.350;2023-02-01T18:08:23;3.30;83.30
11140;DHT22;5624;49.388;11.350;2023-02-01T18:10:51;3.40;83.90
11140;DHT22;5624;49.388;11.350;2023-02-01T18:13:17;3.30;84.20
11140;DHT22;5624;49.388;11.350;2023-02-01T18:15:43;3.30;83.40
11140;DHT22;5624;49.388;11.350;2023-02-01T18:18:08;3.30;83.30
11140;DHT22;5624;49.388;11.350;2023-02-01T18:20:34;3.30;83.70
11140;DHT22;5624;49.388;11.350;2023-02-01T18:23:00;3.40;83.50
11140;DHT22;5624;49.388;11.350;2023-02-01T18:25:28;3.40;84.10
11140;DHT22;5624;49.388;11.350;2023-02-01T18:28:03;3.40;84.00
11140;DHT22;5624;49.388;11.350;2023-02-01T18:30:31;3.40;84.10